Terminal Aerodrome Forecast
Issued by NWS

Home | Current Version | Previous Version | Text Only | Print | Product List | Glossary On
Versions: 1 2 3 4 5 6 7 8 9 10 11 12 13 14 15 16
000
FTUS43 KJKL 271100
TAFSME
TAF
KSME 271125Z 2712/2812 16003KT P6SM OVC100
     FM271400 21008KT P6SM OVC050
     FM272200 20004KT P6SM VCSH OVC030
     FM280100 VRB03KT 6SM -SHRA BR SCT008 OVC025
     FM280300 VRB04KT 4SM -SHRA BR BKN009 OVC015=

USA.gov is the U.S. government's official web portal to all federal, state and local government web resources and services.